Aérodrome :







RETROUVEZ-NOUS SUR...

 
LOGIN :

S'inscrire | Disclaimer

   EN    FR    IT 

 









Légende :    VFR   VFR Marginal   IFR   IFR Intensif   IFR Très Intensif
Visi : 
Plafond : 
>= 8 km
>= 3000ft
5 à 8 km
1000 à 3000 ft
1500m à 5 km
500 à 1000 ft
800 à 1500m
200 à 500 ft
< 800m
< 200 ft
Symboles :   Orages  Brouillard  Fortes neiges  Fortes précipitations  Vent > 20 kt







- Altitude de l'aérodrome : 522 ft
- Code IATA : YBG


CYBG - CFB Bagotville

DERNIER METAR :
  • 240500Z 12006KT 12SM -RA OVC045 09/06 A2981 RMK SC8 SLP098

METARs EXPIRÉS :
  • 240400Z 11011KT 15SM -RA OVC050 09/06 A2981 RMK SC8 SLP098
  • 240300Z 10009KT 15SM -RA OVC050 09/08 A2981 RMK SC8 SLP100

TAF TAF CYBG
Valide du 24 à 06h jusqu'au 25 à 06h UTC


240530Z 2406/2506 12008KT P6SM FEW020 OVC050
TEMPO 2406/2409 6SM -RA BR BKN020 OVC050
FM240900 10008KT P6SM FEW020 OVC040
FM241300 08005KT P6SM BKN040 OVC080
FM241700 08005KT P6SM BKN060
BECMG 2422/2424 VRB03KT RMK NXT FCST BY 241200Z
FIR CZUL / Amérique du Nord



MET'MAP, la Météo Aéronautique d'un coup d'oeil ! - Copyright ORBIFLY Décembre 2007 - Disclaimer

ORBIFLY MET'MAP TEAM :

Programmation & Développement : Alexandra Zaïnal
Conception & Développement : Baudouin d'Aumeries
Co-Programmation & Développement : Marc-Olivier Méhu
Soutien technique & logistique : Manuel Goepfert

Contact : metmap@orbifly.com




SOURCES & CREDITS :

   NOAA